FW8952 Weather Reports


time (UTC)temp
F
wind
direction
speed
knots
gust
knots
rain 1hr
in
rain 24hr
in
rain mn
in
humidity
%
barometer
mb
20240222094554 58 0 0.0 0.9 0.00 0.00 0.00 69 1019.6
20240222093056 58 0 0.0 0.9 0.00 0.00 0.00 67 1019.8
20240222091600 59 0 0.0 0.9 0.00 0.00 0.00 64 1019.6
20240222090102 60 0 0.0 0.0 0.00 0.00 0.00 62 1019.7
20240222084611 59 0 0.0 0.0 0.00 0.00 0.00 61 1019.8
20240222083120 57 0 0.0 0.9 0.00 0.00 0.00 64 1019.9
20240222081604 54 0 0.0 0.0 0.00 0.00 0.00 69 1019.9
20240222080057 51 0 0.0 0.9 0.00 0.00 0.00 70 1019.8
20240222074603 50 0 0.0 0.9 0.00 0.00 0.00 72 1019.8
20240222073103 48 0 0.0 0.9 0.00 0.00 0.00 75 1019.8
20240222071559 48 0 0.0 0.9 0.00 0.00 0.00 75 1019.9
20240222070100 47 0 0.0 0.0 0.00 0.00 0.00 79 1019.9
20240222064556 45 0 0.0 0.0 0.00 0.00 0.00 83 1019.7
20240222063100 43 0 0.0 0.0 0.00 0.00 0.00 84 1019.8
20240222061556 42 0 0.0 0.0 0.00 0.00 0.00 84 1019.6
20240222060056 42 0 0.0 0.0 0.00 0.00 0.00 84 1019.6
20240222054555 42 0 0.0 0.0 0.00 0.00 0.00 84 1019.6
20240222053055 42 0 0.0 0.9 0.00 0.00 0.00 83 1019.6
20240222051556 43 0 0.0 0.0 0.00 0.00 0.00 82 1019.6
20240222050054 43 0 0.0 0.9 0.00 0.00 0.00 83 1019.7
20240222044556 43 0 0.0 0.0 0.00 0.00 0.00 82 1019.8
20240222043103 43 0 0.0 0.9 0.00 0.00 0.00 82 1019.9
20240222041600 43 0 0.0 0.9 0.00 0.00 0.00 82 1019.8
20240222040101 43 0 0.0 0.9 0.00 0.00 0.00 82 1019.7
20240222034559 43 0 0.0 0.9 0.00 0.00 0.00 82 1019.7
20240222033104 43 0 0.0 0.9 0.00 0.00 0.00 82 1019.7
20240222031559 44 0 0.0 0.0 0.00 0.00 0.00 81 1019.9
20240222030104 44 0 0.0 0.9 0.00 0.00 0.00 81 1019.8
20240222024605 45 0 0.0 0.9 0.00 0.00 0.00 81 1019.9
20240222023109 45 0 0.0 0.9 0.00 0.00 0.00 81 1020.0
20240222021602 45 0 0.0 0.9 0.00 0.00 0.00 80 1020.1
20240222020057 45 0 0.0 0.0 0.00 0.00 0.00 80 1020.2
20240222014559 45 0 0.0 0.9 0.00 0.00 0.00 80 1020.2
20240222013102 45 0 0.0 0.0 0.00 0.00 0.00 80 1020.5
20240222011612 45 0 0.0 0.9 0.00 0.00 0.00 80 1020.6
20240222010103 45 0 0.0 0.9 0.00 0.00 0.00 80 1020.8
20240222004600 45 0 0.0 0.9 0.00 0.00 0.00 80 1020.9
20240222003106 46 0 0.0 0.9 0.00 0.00 0.00 80 1021.0
20240222001611 46 0 0.0 0.9 0.00 0.00 0.00 80 1021.2
20240222000107 46 0 0.0 0.9 0.00 0.00 0.00 78 1021.3
20240221234609 47 0 0.0 0.0 0.00 0.00 0.00 77 1021.5
20240221233111 47 0 0.0 0.0 0.00 0.00 0.00 77 1021.5
20240221231611 48 0 0.0 0.9 0.00 0.00 0.00 76 1021.4
20240221230111 48 0 0.0 0.9 0.00 0.00 0.00 76 1021.3
20240221224613 48 0 0.0 0.9 0.00 0.00 0.00 77 1021.3
20240221223113 49 0 0.0 0.0 0.00 0.00 0.00 76 1021.4
20240221221627 49 0 0.0 0.9 0.00 0.00 0.00 75 1021.5
20240221220057 49 0 0.0 1.7 0.00 0.00 0.00 75 1021.6
20240221214601 50 0 0.0 0.9 0.00 0.00 0.00 74 1021.6
20240221213058 50 0 0.0 0.9 0.00 0.00 0.00 74 1021.9
20240221211605 50 0 0.0 0.9 0.00 0.00 0.00 73 1021.8
20240221210101 51 0 0.0 0.0 0.00 0.00 0.00 70 1021.7
20240221204606 52 0 0.0 0.0 0.00 0.00 0.00 69 1021.8
20240221203107 52 0 0.0 0.0 0.00 0.00 0.00 68 1021.9
20240221201609 53 0 0.0 0.0 0.00 0.00 0.00 66 1021.8
20240221200108 53 0 0.0 0.0 0.00 0.00 0.00 64 1021.8
20240221194605 54 0 0.0 0.0 0.00 0.00 0.00 63 1021.6
20240221193102 54 0 0.0 0.0 0.00 0.00 0.00 62 1021.5
20240221191612 55 0 0.0 0.9 0.00 0.00 0.00 60 1021.6
20240221190101 56 0 0.0 0.9 0.00 0.00 0.00 56 1021.6
20240221184558 57 0 0.0 0.9 0.00 0.00 0.00 53 1021.4
20240221183112 55 0 0.0 1.7 0.00 0.00 0.00 58 1021.4
20240221181557 56 0 0.0 0.9 0.00 0.00 0.00 56 1021.3
20240221180057 56 0 0.0 2.6 0.00 0.00 0.00 56 1021.1
20240221174555 56 0 0.0 2.6 0.00 0.00 0.00 55 1021.0
20240221173056 57 0 0.0 3.5 0.00 0.00 0.00 53 1021.0
20240221171600 58 0 0.0 0.9 0.00 0.00 0.00 52 1020.9
20240221170055 60 269 0.0 0.9 0.00 0.00 0.00 48 1020.8
20240221164555 60 0 0.0 0.9 0.00 0.00 0.00 46 1020.6
20240221163056 61 0 0.0 0.9 0.00 0.00 0.00 45 1020.4
20240221161559 61 0 0.0 5.2 0.00 0.00 0.00 45 1020.4
20240221160106 62 0 0.0 0.9 0.00 0.00 0.00 45 1020.2
20240221154558 62 0 0.0 6.1 0.00 0.00 0.00 44 1020.2
20240221153057 62 150 0.0 4.3 0.00 0.00 0.00 45 1020.1
20240221151558 63 0 1.7 5.2 0.00 0.00 0.00 45 1020.3
20240221150055 63 0 0.0 8.7 0.00 0.00 0.00 44 1020.3
20240221144601 63 184 0.0 9.6 0.00 0.00 0.00 44 1020.4
20240221143054 63 0 0.9 7.8 0.00 0.00 0.00 44 1020.5
20240221141606 63 150 1.7 7.8 0.00 0.00 0.00 44 1020.6
20240221140053 63 192 1.7 9.6 0.00 0.00 0.00 44 1020.9
20240221134559 63 169 0.0 7.0 0.00 0.00 0.00 45 1020.9
20240221133054 62 0 0.0 6.1 0.00 0.00 0.00 47 1020.9
20240221131604 63 0 0.0 7.0 0.00 0.00 0.00 46 1021.0
20240221130102 63 0 0.0 6.1 0.00 0.00 0.00 47 1021.2
20240221124555 63 0 0.9 7.0 0.00 0.00 0.00 46 1021.4
20240221123055 63 0 0.0 6.1 0.00 0.00 0.00 48 1021.4
20240221121608 62 0 0.0 4.3 0.00 0.00 0.00 49 1021.4
20240221120056 62 160 1.7 7.8 0.00 0.00 0.00 48 1021.6
20240221114559 61 224 4.3 11.3 0.00 0.00 0.00 50 1021.7
20240221113102 61 0 3.5 10.4 0.00 0.00 0.00 51 1022.0
20240221111600 61 360 0.9 14.8 0.00 0.00 0.00 53 1022.3
20240221110055 60 126 5.2 11.3 0.00 0.00 0.00 53 1022.5
20240221104605 60 38 4.3 14.8 0.00 0.00 0.00 54 1022.7
20240221103103 60 173 4.3 12.2 0.00 0.00 0.00 54 1022.7
20240221101602 59 181 4.3 14.8 0.00 0.00 0.00 55 1022.8
20240221100102 59 161 6.1 20.0 0.00 0.00 0.00 56 1022.8